Time;durP1;ratioP1;P1;durP2;ratioP2;P2;SDS_P1;SDS_P2;PMS_P1;PMS_P2;Temp;Humidity;BMP_temperature;BMP_pressure;BME280_temperature;BME280_humidity;BME280_pressure;Samples;Min_cycle;Max_cycle;Signal;HPM_P1;HPM_P2
2023/09/23 00:00:15;;;;;;;4.07;3.05;;;;;;;;;;5148615;27;20042;-75
2023/09/23 00:02:46;;;;;;;4.70;3.08;;;;;;;;;;5141992;27;20084;-75
2023/09/23 00:05:15;;;;;;;5.47;3.22;;;;;;;;;;5148900;27;20599;-75
2023/09/23 00:07:41;;;;;;;4.55;2.97;;;;;;;;;;5135854;27;20050;-75
2023/09/23 00:10:11;;;;;;;4.28;2.60;;;;;;;;;;5132383;28;20082;-75
2023/09/23 00:12:38;;;;;;;4.93;2.83;;;;;;;;;;5124736;28;20043;-75
2023/09/23 00:15:07;;;;;;;3.92;2.50;;;;;;;;;;5133011;28;20062;-75
2023/09/23 00:17:35;;;;;;;3.72;2.65;;;;;;;;;;5114395;28;20138;-75
2023/09/23 00:20:05;;;;;;;5.88;2.90;;;;;;;;;;5132815;28;20122;-75
2023/09/23 00:22:31;;;;;;;4.90;3.00;;;;;;;;;;5117061;28;20051;-75
2023/09/23 00:24:59;;;;;;;4.40;2.72;;;;;;;;;;5113997;28;20483;-76
2023/09/23 00:27:28;;;;;;;4.80;2.80;;;;;;;;;;5138540;27;20071;-74
2023/09/23 00:29:56;;;;;;;5.32;2.67;;;;;;;;;;5154988;27;20395;-74
2023/09/23 00:32:23;;;;;;;4.05;2.90;;;;;;;;;;5115287;28;20062;-75
2023/09/23 00:34:49;;;;;;;5.47;2.72;;;;;;;;;;5132256;27;20051;-75
2023/09/23 00:37:15;;;;;;;4.95;2.47;;;;;;;;;;5134176;27;20059;-75
2023/09/23 00:39:42;;;;;;;4.88;2.38;;;;;;;;;;5134844;27;20030;-75
2023/09/23 00:42:10;;;;;;;4.43;2.60;;;;;;;;;;5153514;27;20042;-75
2023/09/23 00:44:39;;;;;;;7.25;2.63;;;;;;;;;;5121847;28;20158;-75
2023/09/23 00:47:06;;;;;;;5.32;2.50;;;;;;;;;;5132921;27;20047;-75
2023/09/23 00:49:33;;;;;;;4.35;1.88;;;;;;;;;;5113435;28;20050;-75
2023/09/23 00:52:01;;;;;;;5.13;2.20;;;;;;;;;;5131893;27;20395;-75
2023/09/23 00:54:27;;;;;;;4.53;2.22;;;;;;;;;;5133020;27;20050;-75
2023/09/23 00:56:53;;;;;;;4.13;2.20;;;;;;;;;;5132801;27;20111;-75
2023/09/23 00:59:19;;;;;;;2.90;2.00;;;;;;;;;;5115141;27;20364;-75
2023/09/23 01:01:53;;;;;;;5.18;2.05;;;;;;;;;;5118364;27;20391;-75
2023/09/23 01:04:19;;;;;;;3.72;1.70;;;;;;;;;;5127362;27;20039;-75
2023/09/23 01:06:45;;;;;;;4.30;2.15;;;;;;;;;;5139468;27;20046;-75
2023/09/23 01:09:17;;;;;;;4.82;2.15;;;;;;;;;;5138065;27;20385;-75
2023/09/23 01:11:45;;;;;;;3.38;1.88;;;;;;;;;;5151272;27;20047;-75
2023/09/23 01:14:11;;;;;;;3.83;1.75;;;;;;;;;;5137323;27;20043;-75
2023/09/23 01:16:37;;;;;;;4.45;1.65;;;;;;;;;;5100604;27;20092;-76
2023/09/23 01:19:05;;;;;;;4.95;1.77;;;;;;;;;;5136295;27;20047;-76
2023/09/23 01:21:31;;;;;;;2.15;1.50;;;;;;;;;;5100700;27;20043;-76
2023/09/23 01:23:58;;;;;;;4.20;1.65;;;;;;;;;;5139617;27;20039;-76
2023/09/23 01:26:24;;;;;;;2.42;1.50;;;;;;;;;;5156156;27;20043;-76
2023/09/23 01:28:50;;;;;;;4.82;1.83;;;;;;;;;;5137408;27;20039;-76
2023/09/23 01:31:21;;;;;;;3.25;1.85;;;;;;;;;;5146192;27;20499;-76
2023/09/23 01:33:48;;;;;;;2.95;1.73;;;;;;;;;;5137346;27;20419;-76
2023/09/23 01:36:14;;;;;;;3.40;1.80;;;;;;;;;;5155102;27;20071;-76
2023/09/23 01:38:41;;;;;;;5.38;2.10;;;;;;;;;;5156744;27;20050;-74
2023/09/23 01:41:07;;;;;;;2.67;1.90;;;;;;;;;;5138418;27;20039;-75
2023/09/23 01:43:34;;;;;;;2.60;1.70;;;;;;;;;;5128277;27;20077;-75
2023/09/23 01:46:03;;;;;;;4.45;1.80;;;;;;;;;;5109934;27;20221;-75
2023/09/23 01:48:30;;;;;;;3.47;1.77;;;;;;;;;;5135420;27;20043;-76
2023/09/23 01:50:58;;;;;;;5.18;1.90;;;;;;;;;;5135100;27;20054;-76
2023/09/23 01:53:25;;;;;;;3.22;1.73;;;;;;;;;;5116453;27;20047;-76
2023/09/23 01:55:51;;;;;;;3.45;1.70;;;;;;;;;;5134275;27;20050;-76
2023/09/23 01:58:18;;;;;;;2.92;1.60;;;;;;;;;;5135504;27;20034;-76
2023/09/23 02:00:44;;;;;;;2.35;1.60;;;;;;;;;;5152424;27;20219;-76
2023/09/23 02:03:10;;;;;;;2.50;1.80;;;;;;;;;;5155922;27;20107;-77
2023/09/23 02:05:36;;;;;;;4.45;1.85;;;;;;;;;;5138148;27;20047;-76
2023/09/23 02:08:03;;;;;;;3.20;1.63;;;;;;;;;;5148024;27;20035;-76
2023/09/23 02:10:29;;;;;;;2.45;1.60;;;;;;;;;;5099481;27;20447;-76
2023/09/23 02:12:57;;;;;;;3.78;1.60;;;;;;;;;;5126371;27;20051;-76
2023/09/23 02:15:23;;;;;;;3.25;1.80;;;;;;;;;;5153431;27;20083;-76
2023/09/23 02:17:50;;;;;;;3.08;1.90;;;;;;;;;;5119939;27;20125;-76
2023/09/23 02:20:20;;;;;;;2.80;1.75;;;;;;;;;;5155298;27;20402;-76
2023/09/23 02:22:53;;;;;;;2.90;1.80;;;;;;;;;;5136190;27;20046;-76
2023/09/23 02:25:20;;;;;;;4.07;2.17;;;;;;;;;;5140463;27;20071;-76
2023/09/23 02:27:46;;;;;;;4.32;2.40;;;;;;;;;;5134658;27;20035;-76
2023/09/23 02:30:13;;;;;;;3.13;2.10;;;;;;;;;;5107107;27;20110;-76
2023/09/23 02:32:40;;;;;;;3.90;2.50;;;;;;;;;;5136325;27;20560;-76
2023/09/23 02:35:11;;;;;;;4.47;3.10;;;;;;;;;;5123828;27;20039;-76
2023/09/23 02:37:41;;;;;;;4.88;3.00;;;;;;;;;;5149496;27;20491;-76
2023/09/23 02:40:11;;;;;;;4.60;3.13;;;;;;;;;;5115767;27;20348;-76
2023/09/23 02:42:38;;;;;;;5.40;3.42;;;;;;;;;;5115891;27;20518;-75
2023/09/23 02:45:05;;;;;;;6.22;4.15;;;;;;;;;;5116759;27;20046;-76
2023/09/23 02:47:31;;;;;;;5.78;3.83;;;;;;;;;;5131313;27;20038;-76
2023/09/23 02:49:57;;;;;;;6.65;4.55;;;;;;;;;;5136394;27;20072;-76
2023/09/23 02:52:23;;;;;;;6.82;5.40;;;;;;;;;;5135185;27;20503;-75
2023/09/23 02:54:53;;;;;;;7.40;5.80;;;;;;;;;;5130684;27;20130;-76
2023/09/23 02:57:19;;;;;;;9.05;5.90;;;;;;;;;;5154426;27;20058;-76
2023/09/23 02:59:53;;;;;;;7.45;6.43;;;;;;;;;;5134939;27;20038;-76
2023/09/23 03:02:24;;;;;;;8.25;6.40;;;;;;;;;;5137070;27;20046;-76
2023/09/23 03:04:58;;;;;;;7.57;6.72;;;;;;;;;;5132460;27;20046;-76
2023/09/23 03:07:33;;;;;;;10.32;7.13;;;;;;;;;;5134232;27;20090;-75
2023/09/23 03:10:01;;;;;;;8.65;7.00;;;;;;;;;;5115164;27;20043;-76
2023/09/23 03:12:38;;;;;;;7.68;6.72;;;;;;;;;;5135345;27;20133;-76
2023/09/23 03:15:14;;;;;;;8.45;7.40;;;;;;;;;;5150997;27;20122;-76
2023/09/23 03:17:42;;;;;;;9.00;7.18;;;;;;;;;;5128870;27;20486;-76
2023/09/23 03:20:10;;;;;;;8.45;7.57;;;;;;;;;;5132471;27;20039;-76
2023/09/23 03:22:36;;;;;;;8.75;7.28;;;;;;;;;;5131401;27;20491;-76
2023/09/23 03:25:03;;;;;;;11.52;8.02;;;;;;;;;;5147104;27;20031;-76
2023/09/23 03:27:29;;;;;;;9.60;8.02;;;;;;;;;;5138324;27;20039;-76
2023/09/23 03:29:57;;;;;;;9.43;7.47;;;;;;;;;;5131273;27;20547;-76
2023/09/23 03:32:23;;;;;;;10.50;7.57;;;;;;;;;;5125757;27;20051;-76
2023/09/23 03:34:50;;;;;;;11.48;8.32;;;;;;;;;;5148414;27;20058;-76
2023/09/23 03:37:16;;;;;;;8.70;7.78;;;;;;;;;;5135091;27;20425;-76
2023/09/23 03:39:42;;;;;;;10.18;7.40;;;;;;;;;;5135539;27;20039;-76
2023/09/23 03:42:09;;;;;;;10.60;7.95;;;;;;;;;;5150791;27;20047;-76
2023/09/23 03:44:36;;;;;;;9.02;8.13;;;;;;;;;;5116100;28;20043;-76
2023/09/23 03:47:03;;;;;;;9.52;7.70;;;;;;;;;;5117524;27;20053;-76
2023/09/23 03:49:31;;;;;;;9.75;8.75;;;;;;;;;;5123923;27;20051;-74
2023/09/23 03:51:57;;;;;;;11.48;8.15;;;;;;;;;;5137749;27;20049;-75
2023/09/23 03:54:23;;;;;;;8.55;7.65;;;;;;;;;;5131240;27;20108;-75
2023/09/23 03:56:49;;;;;;;10.88;7.82;;;;;;;;;;5094783;28;20089;-75
2023/09/23 03:59:15;;;;;;;10.77;7.95;;;;;;;;;;5112273;27;20067;-75
2023/09/23 04:01:41;;;;;;;9.52;8.52;;;;;;;;;;5146399;27;20122;-75
2023/09/23 04:04:10;;;;;;;10.27;8.88;;;;;;;;;;5141769;27;20124;-75
2023/09/23 04:06:37;;;;;;;9.52;8.45;;;;;;;;;;5153447;27;20395;-75
2023/09/23 04:09:06;;;;;;;9.95;8.52;;;;;;;;;;5121767;28;20612;-75
2023/09/23 04:11:35;;;;;;;9.88;8.52;;;;;;;;;;5112691;28;20039;-75
2023/09/23 04:14:01;;;;;;;10.90;8.77;;;;;;;;;;5106056;28;20083;-75
2023/09/23 04:16:27;;;;;;;10.27;8.95;;;;;;;;;;5132814;28;20124;-76
2023/09/23 04:18:53;;;;;;;11.32;8.60;;;;;;;;;;5132751;28;20126;-76
2023/09/23 04:21:21;;;;;;;10.73;9.60;;;;;;;;;;5132404;28;20423;-76
2023/09/23 04:23:50;;;;;;;10.88;9.43;;;;;;;;;;5132094;28;20050;-76
2023/09/23 04:26:21;;;;;;;14.90;10.13;;;;;;;;;;5126599;28;20477;-76
2023/09/23 04:28:48;;;;;;;9.93;8.93;;;;;;;;;;5133270;28;20093;-76
2023/09/23 04:31:14;;;;;;;11.50;9.05;;;;;;;;;;5125784;28;20041;-76
2023/09/23 04:33:41;;;;;;;10.25;9.10;;;;;;;;;;5131758;27;20049;-76
2023/09/23 04:36:10;;;;;;;13.77;9.98;;;;;;;;;;5115611;27;20059;-76
2023/09/23 04:38:37;;;;;;;11.68;8.85;;;;;;;;;;5117250;27;20099;-76
2023/09/23 04:41:06;;;;;;;10.68;9.40;;;;;;;;;;5101882;27;20046;-76
2023/09/23 04:43:33;;;;;;;9.20;8.25;;;;;;;;;;5118542;27;20035;-76
2023/09/23 04:45:59;;;;;;;10.10;8.55;;;;;;;;;;5136382;27;20099;-76
2023/09/23 04:48:25;;;;;;;10.07;8.98;;;;;;;;;;5137853;27;20027;-76
2023/09/23 04:50:55;;;;;;;10.57;8.75;;;;;;;;;;5143128;27;20067;-76
2023/09/23 04:53:21;;;;;;;9.50;8.50;;;;;;;;;;5152661;27;20394;-76
2023/09/23 04:55:48;;;;;;;8.55;7.63;;;;;;;;;;5143732;27;20043;-77
2023/09/23 04:58:14;;;;;;;11.15;8.60;;;;;;;;;;5139083;27;20474;-76
2023/09/23 05:00:40;;;;;;;9.48;8.18;;;;;;;;;;5114301;28;20058;-77
2023/09/23 05:03:08;;;;;;;8.93;8.05;;;;;;;;;;5121211;27;20031;-76
2023/09/23 05:05:34;;;;;;;14.18;8.40;;;;;;;;;;5117338;27;20498;-76
2023/09/23 05:08:06;;;;;;;9.77;8.30;;;;;;;;;;5136433;27;20043;-76
2023/09/23 05:10:32;;;;;;;9.20;8.07;;;;;;;;;;5140897;27;20193;-77
2023/09/23 05:12:58;;;;;;;9.15;8.07;;;;;;;;;;5135974;27;20046;-77
2023/09/23 05:15:25;;;;;;;9.30;8.10;;;;;;;;;;5135390;27;20065;-77
2023/09/23 05:17:54;;;;;;;9.95;8.48;;;;;;;;;;5136238;27;20491;-76
2023/09/23 05:20:22;;;;;;;10.68;8.70;;;;;;;;;;5135963;27;20425;-76
2023/09/23 05:22:48;;;;;;;9.32;8.32;;;;;;;;;;5135176;27;20490;-77
2023/09/23 05:25:15;;;;;;;9.32;8.18;;;;;;;;;;5129692;27;20406;-76
2023/09/23 05:27:44;;;;;;;9.35;8.35;;;;;;;;;;5133822;27;20050;-76
2023/09/23 05:30:11;;;;;;;9.50;8.13;;;;;;;;;;5118775;27;20061;-76
2023/09/23 05:32:38;;;;;;;9.57;8.57;;;;;;;;;;5126391;27;20039;-77
2023/09/23 05:35:09;;;;;;;11.68;8.50;;;;;;;;;;5133755;27;20051;-77
2023/09/23 05:37:35;;;;;;;12.15;9.30;;;;;;;;;;5117527;27;20491;-77
2023/09/23 05:40:01;;;;;;;10.68;9.02;;;;;;;;;;5114749;28;20078;-76
2023/09/23 05:42:30;;;;;;;11.30;9.07;;;;;;;;;;5097234;28;20436;-76
2023/09/23 05:44:56;;;;;;;11.73;9.80;;;;;;;;;;5095913;28;20044;-76
2023/09/23 05:47:23;;;;;;;10.52;9.43;;;;;;;;;;5113016;28;20039;-76
2023/09/23 05:49:49;;;;;;;10.70;9.60;;;;;;;;;;5129546;27;20047;-76
2023/09/23 05:52:15;;;;;;;11.73;10.38;;;;;;;;;;5118796;27;20039;-76
2023/09/23 05:54:41;;;;;;;10.65;9.50;;;;;;;;;;5136345;27;20399;-76
2023/09/23 05:57:07;;;;;;;12.18;10.88;;;;;;;;;;5136625;27;20051;-76
2023/09/23 05:59:34;;;;;;;10.45;9.35;;;;;;;;;;5126079;27;20043;-74
2023/09/23 06:02:04;;;;;;;12.85;10.52;;;;;;;;;;5155753;27;20039;-75
2023/09/23 06:04:30;;;;;;;11.48;10.27;;;;;;;;;;5150266;27;20521;-76
2023/09/23 06:06:56;;;;;;;13.63;11.55;;;;;;;;;;5129032;27;20064;-76
2023/09/23 06:09:23;;;;;;;12.23;10.80;;;;;;;;;;5155259;27;20134;-76
2023/09/23 06:11:50;;;;;;;13.02;11.32;;;;;;;;;;5119608;27;20078;-76
2023/09/23 06:14:16;;;;;;;16.13;11.90;;;;;;;;;;5136972;27;20046;-76
2023/09/23 06:16:42;;;;;;;13.60;12.00;;;;;;;;;;5136791;27;20091;-76
2023/09/23 06:19:08;;;;;;;15.57;12.52;;;;;;;;;;5135743;27;20042;-75
2023/09/23 06:21:34;;;;;;;13.43;11.98;;;;;;;;;;5155835;27;20038;-75
2023/09/23 06:24:00;;;;;;;14.02;12.32;;;;;;;;;;5137033;27;20141;-75
2023/09/23 06:26:26;;;;;;;14.52;12.73;;;;;;;;;;5139324;27;20043;-75
2023/09/23 06:28:52;;;;;;;15.43;13.18;;;;;;;;;;5134979;27;20403;-75
2023/09/23 06:31:19;;;;;;;14.63;12.98;;;;;;;;;;5134459;27;20039;-75
2023/09/23 06:33:45;;;;;;;15.52;12.70;;;;;;;;;;5134857;27;20043;-75
2023/09/23 06:36:11;;;;;;;14.82;13.25;;;;;;;;;;5134137;27;20057;-75
2023/09/23 06:38:38;;;;;;;18.00;14.25;;;;;;;;;;5116454;27;20124;-75
2023/09/23 06:41:04;;;;;;;15.77;14.07;;;;;;;;;;5115676;27;20135;-75
2023/09/23 06:43:30;;;;;;;17.42;13.93;;;;;;;;;;5134445;27;20070;-76
2023/09/23 06:45:57;;;;;;;18.67;15.60;;;;;;;;;;5133900;27;20515;-75
2023/09/23 06:48:24;;;;;;;16.85;15.15;;;;;;;;;;5134072;27;20047;-75
2023/09/23 06:51:00;;;;;;;19.02;16.08;;;;;;;;;;5132003;27;20041;-75
2023/09/23 06:53:26;;;;;;;19.08;17.08;;;;;;;;;;5133289;27;20502;-75
2023/09/23 06:55:52;;;;;;;18.50;15.80;;;;;;;;;;5115575;27;20071;-75
2023/09/23 06:58:18;;;;;;;20.60;17.50;;;;;;;;;;5133830;27;20051;-75
2023/09/23 07:00:44;;;;;;;21.30;18.75;;;;;;;;;;5133969;27;20065;-75
2023/09/23 07:03:10;;;;;;;21.38;18.83;;;;;;;;;;5115690;27;20051;-75
2023/09/23 07:05:37;;;;;;;25.13;18.17;;;;;;;;;;5098566;27;20130;-75
2023/09/23 07:08:04;;;;;;;22.67;19.05;;;;;;;;;;5120673;27;20058;-75
2023/09/23 07:10:34;;;;;;;20.85;18.65;;;;;;;;;;5120116;27;20054;-75
2023/09/23 07:13:00;;;;;;;21.00;18.67;;;;;;;;;;5133849;27;20465;-75
2023/09/23 07:15:28;;;;;;;22.80;18.23;;;;;;;;;;5115365;27;20349;-75
2023/09/23 07:17:54;;;;;;;21.10;18.05;;;;;;;;;;5115658;27;20047;-76
2023/09/23 07:20:20;;;;;;;22.48;18.08;;;;;;;;;;5097873;27;20043;-75
2023/09/23 07:22:46;;;;;;;20.63;17.77;;;;;;;;;;5114835;27;20525;-75
2023/09/23 07:25:12;;;;;;;21.40;17.42;;;;;;;;;;5128086;27;20036;-75
2023/09/23 07:27:38;;;;;;;21.98;17.20;;;;;;;;;;5112041;28;20051;-76
2023/09/23 07:30:05;;;;;;;20.35;18.13;;;;;;;;;;5112664;28;20065;-75
2023/09/23 07:32:31;;;;;;;20.00;17.83;;;;;;;;;;5095304;28;20043;-75
2023/09/23 07:34:57;;;;;;;19.52;17.42;;;;;;;;;;5094449;28;20043;-75
2023/09/23 07:37:23;;;;;;;20.45;18.20;;;;;;;;;;5112976;28;20514;-76
2023/09/23 07:39:50;;;;;;;18.98;16.55;;;;;;;;;;5094611;28;20043;-75
2023/09/23 07:42:16;;;;;;;18.65;16.20;;;;;;;;;;5113497;28;20051;-75
2023/09/23 07:44:42;;;;;;;19.73;17.15;;;;;;;;;;5112366;28;20046;-75
2023/09/23 07:47:08;;;;;;;19.90;16.48;;;;;;;;;;5111256;28;20047;-75
2023/09/23 07:49:35;;;;;;;19.30;16.63;;;;;;;;;;5077259;28;20048;-75
2023/09/23 07:52:01;;;;;;;20.60;15.75;;;;;;;;;;5111852;28;20118;-75
2023/09/23 07:54:27;;;;;;;17.92;15.50;;;;;;;;;;5093418;28;20510;-75
2023/09/23 07:56:53;;;;;;;16.83;14.50;;;;;;;;;;5094386;28;20192;-75
2023/09/23 07:59:19;;;;;;;17.13;13.80;;;;;;;;;;5077385;28;20079;-75
2023/09/23 08:01:46;;;;;;;16.77;14.02;;;;;;;;;;5094510;28;20036;-75
2023/09/23 08:04:13;;;;;;;18.73;13.82;;;;;;;;;;5112780;28;20058;-75
2023/09/23 08:06:39;;;;;;;15.68;13.38;;;;;;;;;;5112765;28;20044;-75
2023/09/23 08:09:05;;;;;;;16.55;14.73;;;;;;;;;;5115343;28;20032;-75
2023/09/23 08:11:34;;;;;;;17.10;14.13;;;;;;;;;;5116716;28;20100;-75
2023/09/23 08:14:00;;;;;;;19.58;13.82;;;;;;;;;;5116764;28;20445;-75
2023/09/23 08:16:26;;;;;;;16.60;13.98;;;;;;;;;;5097834;28;20516;-75
2023/09/23 08:18:52;;;;;;;18.15;14.27;;;;;;;;;;5116877;28;20046;-75
2023/09/23 08:21:18;;;;;;;18.02;14.63;;;;;;;;;;5116503;28;20073;-76
2023/09/23 08:23:45;;;;;;;17.48;14.57;;;;;;;;;;5098176;28;20048;-75
2023/09/23 08:26:11;;;;;;;19.10;14.57;;;;;;;;;;5115660;28;20071;-75
2023/09/23 08:28:39;;;;;;;18.63;13.77;;;;;;;;;;5116753;28;20427;-75
2023/09/23 08:31:05;;;;;;;15.13;12.88;;;;;;;;;;5116062;28;20047;-75
2023/09/23 08:33:32;;;;;;;17.15;14.05;;;;;;;;;;5098450;28;20036;-75
2023/09/23 08:35:58;;;;;;;16.02;13.02;;;;;;;;;;5116039;28;20054;-75
2023/09/23 08:38:25;;;;;;;14.90;12.25;;;;;;;;;;5097835;28;20046;-75
2023/09/23 08:40:51;;;;;;;14.15;12.00;;;;;;;;;;5116199;28;20391;-75
2023/09/23 08:43:18;;;;;;;12.60;11.27;;;;;;;;;;5097077;28;20044;-73
2023/09/23 08:45:45;;;;;;;13.30;10.52;;;;;;;;;;5115572;28;20518;-74
2023/09/23 08:48:13;;;;;;;12.48;10.25;;;;;;;;;;5116862;28;20083;-74
2023/09/23 08:50:43;;;;;;;10.18;8.35;;;;;;;;;;5097181;28;20050;-74
2023/09/23 08:53:11;;;;;;;12.63;8.82;;;;;;;;;;5115553;28;20035;-75
2023/09/23 08:55:38;;;;;;;9.77;7.63;;;;;;;;;;5115051;28;20036;-75
2023/09/23 08:58:04;;;;;;;11.02;7.50;;;;;;;;;;5098067;28;20079;-75
2023/09/23 09:00:31;;;;;;;11.02;7.57;;;;;;;;;;5097119;28;20055;-74
2023/09/23 09:02:58;;;;;;;9.73;6.68;;;;;;;;;;5097629;28;20124;-75
2023/09/23 09:05:24;;;;;;;8.57;6.10;;;;;;;;;;5115650;28;20039;-75
2023/09/23 09:07:50;;;;;;;8.02;5.53;;;;;;;;;;5115934;28;20050;-75
2023/09/23 09:10:17;;;;;;;7.28;4.90;;;;;;;;;;5115240;28;20043;-75
2023/09/23 09:12:43;;;;;;;7.63;4.63;;;;;;;;;;5115655;28;20070;-75
2023/09/23 09:15:10;;;;;;;8.23;4.97;;;;;;;;;;5096791;28;20043;-75
2023/09/23 09:17:36;;;;;;;9.18;4.60;;;;;;;;;;5096850;28;20095;-75
2023/09/23 09:20:08;;;;;;;8.95;4.75;;;;;;;;;;5114560;28;20043;-75
2023/09/23 09:22:36;;;;;;;7.43;4.35;;;;;;;;;;5115863;28;20491;-75
2023/09/23 09:25:04;;;;;;;7.38;4.40;;;;;;;;;;5117759;27;20043;-76
2023/09/23 09:27:30;;;;;;;5.65;4.10;;;;;;;;;;5116152;27;20043;-75
2023/09/23 09:29:56;;;;;;;7.82;4.32;;;;;;;;;;5114512;27;20054;-74
2023/09/23 09:32:29;;;;;;;7.32;4.72;;;;;;;;;;5133914;27;20134;-74
2023/09/23 09:35:00;;;;;;;10.07;4.35;;;;;;;;;;5116733;27;20069;-74
2023/09/23 09:37:27;;;;;;;7.40;4.28;;;;;;;;;;5133592;27;20051;-74
2023/09/23 09:39:57;;;;;;;8.05;3.65;;;;;;;;;;5116662;27;20510;-74
2023/09/23 09:42:33;;;;;;;8.20;3.78;;;;;;;;;;5117478;27;20088;-74
2023/09/23 09:44:59;;;;;;;7.60;3.45;;;;;;;;;;5135206;27;20130;-74
2023/09/23 09:47:29;;;;;;;5.55;3.38;;;;;;;;;;5135369;27;20039;-74
2023/09/23 09:49:55;;;;;;;5.10;3.00;;;;;;;;;;5135012;27;20039;-74
2023/09/23 09:52:27;;;;;;;5.68;3.13;;;;;;;;;;5135447;27;20157;-74
2023/09/23 09:54:55;;;;;;;6.78;2.67;;;;;;;;;;5134585;27;20043;-74
2023/09/23 09:57:22;;;;;;;5.32;2.80;;;;;;;;;;5116774;27;20042;-74
2023/09/23 09:59:48;;;;;;;4.85;2.60;;;;;;;;;;5134731;27;20122;-74
2023/09/23 10:02:15;;;;;;;6.22;2.60;;;;;;;;;;5116725;27;20031;-75
2023/09/23 10:04:45;;;;;;;5.97;2.35;;;;;;;;;;5116072;27;20134;-75
2023/09/23 10:07:11;;;;;;;3.80;2.30;;;;;;;;;;5116887;27;20047;-74
2023/09/23 10:09:40;;;;;;;5.22;2.38;;;;;;;;;;5116483;27;20100;-75
2023/09/23 10:12:07;;;;;;;6.82;2.35;;;;;;;;;;5116840;27;20494;-75
2023/09/23 10:14:33;;;;;;;5.57;2.40;;;;;;;;;;5134510;27;20088;-75
2023/09/23 10:17:05;;;;;;;7.43;2.65;;;;;;;;;;5134433;27;20098;-75
2023/09/23 10:19:39;;;;;;;5.35;2.35;;;;;;;;;;5114545;27;20047;-74
2023/09/23 10:22:20;;;;;;;6.72;2.38;;;;;;;;;;5135380;27;20058;-74
2023/09/23 10:24:57;;;;;;;7.57;2.50;;;;;;;;;;5138304;27;20122;-74
2023/09/23 10:27:24;;;;;;;5.93;2.30;;;;;;;;;;5106070;27;20119;-74
2023/09/23 10:29:50;;;;;;;6.07;2.53;;;;;;;;;;5118101;27;20047;-74
2023/09/23 10:32:17;;;;;;;4.50;2.30;;;;;;;;;;5134672;27;20463;-74
2023/09/23 10:34:47;;;;;;;5.40;2.47;;;;;;;;;;5133988;27;20043;-75
2023/09/23 10:37:15;;;;;;;4.53;2.35;;;;;;;;;;5115833;27;20582;-74
2023/09/23 10:39:45;;;;;;;6.50;2.40;;;;;;;;;;5134328;27;20035;-75
2023/09/23 10:42:15;;;;;;;5.43;2.53;;;;;;;;;;5134577;27;20039;-75
2023/09/23 10:44:41;;;;;;;4.53;2.58;;;;;;;;;;5133862;27;20407;-74
2023/09/23 10:47:08;;;;;;;5.43;2.85;;;;;;;;;;5133874;27;20050;-75
2023/09/23 10:49:35;;;;;;;6.82;3.08;;;;;;;;;;5115319;27;20055;-74
2023/09/23 10:52:01;;;;;;;7.57;3.10;;;;;;;;;;5134683;27;20100;-73
2023/09/23 10:54:28;;;;;;;5.75;2.90;;;;;;;;;;5133828;27;20051;-74
2023/09/23 10:56:54;;;;;;;5.57;2.60;;;;;;;;;;5133901;27;20062;-73
2023/09/23 10:59:20;;;;;;;6.18;2.40;;;;;;;;;;5133916;27;20073;-74
2023/09/23 11:01:46;;;;;;;4.00;2.08;;;;;;;;;;5134253;27;20043;-73
2023/09/23 11:04:12;;;;;;;5.03;2.30;;;;;;;;;;5115389;27;20096;-74
2023/09/23 11:06:38;;;;;;;6.00;2.40;;;;;;;;;;5133723;27;20407;-74
2023/09/23 11:09:08;;;;;;;5.72;2.20;;;;;;;;;;5132868;27;20394;-73
2023/09/23 11:11:36;;;;;;;4.68;1.95;;;;;;;;;;5115337;27;20047;-74
2023/09/23 11:14:02;;;;;;;4.80;1.92;;;;;;;;;;5098675;27;20039;-74
2023/09/23 11:16:29;;;;;;;5.88;2.60;;;;;;;;;;5133385;27;20418;-74
2023/09/23 11:18:57;;;;;;;8.10;2.70;;;;;;;;;;5133834;27;20039;-74
2023/09/23 11:21:23;;;;;;;5.93;2.67;;;;;;;;;;5133277;27;20051;-74
2023/09/23 11:23:58;;;;;;;5.97;2.67;;;;;;;;;;5113935;27;20127;-74
2023/09/23 11:26:25;;;;;;;6.45;2.70;;;;;;;;;;5133002;27;20043;-75
2023/09/23 11:28:53;;;;;;;5.82;2.70;;;;;;;;;;5115365;27;20062;-74
2023/09/23 11:31:19;;;;;;;9.70;2.72;;;;;;;;;;5115026;27;20043;-74
2023/09/23 11:33:45;;;;;;;6.45;2.70;;;;;;;;;;5133605;27;20088;-74
2023/09/23 11:36:11;;;;;;;6.25;2.58;;;;;;;;;;5114582;27;20066;-74
2023/09/23 11:38:40;;;;;;;6.53;2.72;;;;;;;;;;5133531;27;20064;-74
2023/09/23 11:41:06;;;;;;;5.80;2.60;;;;;;;;;;5133172;27;20046;-74
2023/09/23 11:43:32;;;;;;;4.57;2.40;;;;;;;;;;5133030;27;20479;-74
2023/09/23 11:45:58;;;;;;;6.47;2.72;;;;;;;;;;5133070;27;20079;-75
2023/09/23 11:48:24;;;;;;;8.20;3.20;;;;;;;;;;5133461;27;20089;-75
2023/09/23 11:50:50;;;;;;;6.55;2.92;;;;;;;;;;5114492;28;20048;-75
2023/09/23 11:53:18;;;;;;;6.40;2.90;;;;;;;;;;5131506;28;20046;-75
2023/09/23 11:55:45;;;;;;;5.78;3.00;;;;;;;;;;5114788;28;20412;-75
2023/09/23 11:58:12;;;;;;;5.85;2.67;;;;;;;;;;5133489;28;20095;-75
2023/09/23 12:00:38;;;;;;;4.65;2.20;;;;;;;;;;5114842;28;20099;-75
2023/09/23 12:03:04;;;;;;;5.03;1.90;;;;;;;;;;5114810;28;20395;-75
2023/09/23 12:05:30;;;;;;;3.70;1.90;;;;;;;;;;5133019;28;20442;-75
2023/09/23 12:07:58;;;;;;;6.00;1.63;;;;;;;;;;5114775;28;20039;-75
2023/09/23 12:10:25;;;;;;;3.95;1.60;;;;;;;;;;5132962;28;20043;-75
2023/09/23 12:12:51;;;;;;;2.60;1.60;;;;;;;;;;5133022;28;20039;-75
2023/09/23 12:15:17;;;;;;;3.80;1.70;;;;;;;;;;5112106;28;20047;-75
2023/09/23 12:17:43;;;;;;;4.15;1.88;;;;;;;;;;5113162;28;20051;-76
2023/09/23 12:20:10;;;;;;;2.58;1.45;;;;;;;;;;5112564;28;20387;-75
2023/09/23 12:22:36;;;;;;;3.65;1.50;;;;;;;;;;5133540;28;20051;-75
2023/09/23 12:25:02;;;;;;;4.43;2.05;;;;;;;;;;5110316;28;20432;-75
2023/09/23 12:27:28;;;;;;;4.35;1.90;;;;;;;;;;5094453;28;20130;-76
2023/09/23 12:29:55;;;;;;;5.75;2.00;;;;;;;;;;5093725;28;20576;-74
2023/09/23 12:32:22;;;;;;;4.65;1.50;;;;;;;;;;5112776;28;20044;-74
2023/09/23 12:34:49;;;;;;;3.25;1.60;;;;;;;;;;5111813;28;20054;-75
2023/09/23 12:37:15;;;;;;;2.70;1.42;;;;;;;;;;5112556;28;20051;-75
2023/09/23 12:39:41;;;;;;;4.47;3.00;;;;;;;;;;5093441;28;20047;-75
2023/09/23 12:42:07;;;;;;;7.15;2.60;;;;;;;;;;5112476;28;20043;-75
2023/09/23 12:44:33;;;;;;;3.25;1.70;;;;;;;;;;5093334;28;20047;-75
2023/09/23 12:46:59;;;;;;;5.03;3.28;;;;;;;;;;5110708;28;20050;-75
2023/09/23 12:49:25;;;;;;;2.78;1.67;;;;;;;;;;5109474;28;20479;-74
2023/09/23 12:51:51;;;;;;;2.10;1.35;;;;;;;;;;5094029;28;20048;-75
2023/09/23 12:54:18;;;;;;;3.33;1.60;;;;;;;;;;5112065;28;20118;-75
2023/09/23 12:56:44;;;;;;;2.88;1.25;;;;;;;;;;5096668;28;20040;-75
2023/09/23 12:59:11;;;;;;;2.42;1.20;;;;;;;;;;5115844;28;20039;-75
2023/09/23 13:01:37;;;;;;;1.88;1.20;;;;;;;;;;5115586;28;20168;-74
2023/09/23 13:04:03;;;;;;;1.95;1.40;;;;;;;;;;5115538;28;20043;-75
2023/09/23 13:06:29;;;;;;;3.95;2.00;;;;;;;;;;5115361;28;20490;-75
2023/09/23 13:08:55;;;;;;;2.42;1.58;;;;;;;;;;5115858;28;20106;-76
2023/09/23 13:11:22;;;;;;;3.05;1.30;;;;;;;;;;5115509;28;20039;-74
2023/09/23 13:13:49;;;;;;;4.85;1.38;;;;;;;;;;5115526;28;20075;-75
2023/09/23 13:16:15;;;;;;;2.65;1.30;;;;;;;;;;5097234;28;20044;-75
2023/09/23 13:18:41;;;;;;;3.38;1.35;;;;;;;;;;5097328;28;20051;-74
2023/09/23 13:21:10;;;;;;;3.95;1.40;;;;;;;;;;5097251;28;20118;-75
2023/09/23 13:23:38;;;;;;;2.85;1.35;;;;;;;;;;5113864;28;20069;-75
2023/09/23 13:26:05;;;;;;;1.92;1.20;;;;;;;;;;5105404;28;20043;-74
2023/09/23 13:28:31;;;;;;;2.80;1.40;;;;;;;;;;5115327;28;20093;-74
2023/09/23 13:30:57;;;;;;;4.18;1.40;;;;;;;;;;5096893;28;20040;-74
2023/09/23 13:33:24;;;;;;;4.90;1.48;;;;;;;;;;5095418;28;20032;-74
2023/09/23 13:35:51;;;;;;;3.72;1.60;;;;;;;;;;5096464;28;20146;-74
2023/09/23 13:38:17;;;;;;;3.63;1.48;;;;;;;;;;5097099;28;20123;-74
2023/09/23 13:40:43;;;;;;;5.97;1.55;;;;;;;;;;5096658;28;20047;-74
2023/09/23 13:43:10;;;;;;;3.38;1.80;;;;;;;;;;5096788;28;20047;-74
2023/09/23 13:45:36;;;;;;;7.22;2.60;;;;;;;;;;5115768;28;20416;-74
2023/09/23 13:48:05;;;;;;;8.20;2.90;;;;;;;;;;5096439;28;20051;-74
2023/09/23 13:50:31;;;;;;;5.68;2.30;;;;;;;;;;5094565;28;20112;-74
2023/09/23 13:52:57;;;;;;;4.40;1.80;;;;;;;;;;5115029;28;20259;-74
2023/09/23 13:55:23;;;;;;;6.40;1.90;;;;;;;;;;5114635;28;20050;-74
2023/09/23 13:57:50;;;;;;;3.45;1.50;;;;;;;;;;5114808;28;20132;-74
2023/09/23 14:00:16;;;;;;;4.68;1.70;;;;;;;;;;5096432;28;20055;-73
2023/09/23 14:02:43;;;;;;;6.32;1.67;;;;;;;;;;5114781;28;20039;-74
2023/09/23 14:05:10;;;;;;;5.97;1.95;;;;;;;;;;5079073;28;20079;-74
2023/09/23 14:07:37;;;;;;;4.75;1.50;;;;;;;;;;5079725;28;20130;-74
2023/09/23 14:10:04;;;;;;;4.38;2.03;;;;;;;;;;5114250;28;20036;-74
2023/09/23 14:12:30;;;;;;;5.93;1.50;;;;;;;;;;5114735;28;20043;-74
2023/09/23 14:14:56;;;;;;;3.75;1.70;;;;;;;;;;5113957;28;20395;-74
2023/09/23 14:17:23;;;;;;;4.43;1.80;;;;;;;;;;5079852;28;20376;-74
2023/09/23 14:19:49;;;;;;;4.28;1.83;;;;;;;;;;5114201;28;20392;-74
2023/09/23 14:22:15;;;;;;;5.45;1.60;;;;;;;;;;5095799;28;20495;-74
2023/09/23 14:24:42;;;;;;;2.97;1.30;;;;;;;;;;5113205;28;20039;-75
2023/09/23 14:27:08;;;;;;;2.83;1.40;;;;;;;;;;5095881;28;20104;-75
2023/09/23 14:29:35;;;;;;;2.50;1.42;;;;;;;;;;5133838;27;20082;-74
2023/09/23 14:32:01;;;;;;;2.97;1.30;;;;;;;;;;5134273;27;20098;-74
2023/09/23 14:34:27;;;;;;;4.35;1.33;;;;;;;;;;5133741;27;20035;-75